sensor_id;sensor_type;location;lat;lon;timestamp;P1;durP1;ratioP1;P2;durP2;ratioP2
15931;SDS011;8065;49.520;11.284;2024-02-23T00:00:07;2.00;;;0.50;;
15931;SDS011;8065;49.520;11.284;2024-02-23T00:02:36;1.67;;;0.50;;
15931;SDS011;8065;49.520;11.284;2024-02-23T00:05:05;0.97;;;0.50;;
15931;SDS011;8065;49.520;11.284;2024-02-23T00:07:33;0.43;;;0.30;;
15931;SDS011;8065;49.520;11.284;2024-02-23T00:10:02;0.80;;;0.40;;
15931;SDS011;8065;49.520;11.284;2024-02-23T00:12:30;0.50;;;0.50;;
15931;SDS011;8065;49.520;11.284;2024-02-23T00:15:01;2.03;;;0.77;;
15931;SDS011;8065;49.520;11.284;2024-02-23T00:17:30;0.40;;;0.40;;
15931;SDS011;8065;49.520;11.284;2024-02-23T00:22:26;1.63;;;0.50;;
15931;SDS011;8065;49.520;11.284;2024-02-23T00:24:54;0.37;;;0.30;;
15931;SDS011;8065;49.520;11.284;2024-02-23T00:27:22;0.60;;;0.30;;
15931;SDS011;8065;49.520;11.284;2024-02-23T00:29:51;0.93;;;0.30;;
15931;SDS011;8065;49.520;11.284;2024-02-23T00:32:22;0.40;;;0.27;;
15931;SDS011;8065;49.520;11.284;2024-02-23T00:34:50;0.30;;;0.30;;
15931;SDS011;8065;49.520;11.284;2024-02-23T00:37:18;0.40;;;0.40;;
15931;SDS011;8065;49.520;11.284;2024-02-23T00:39:46;0.60;;;0.30;;
15931;SDS011;8065;49.520;11.284;2024-02-23T00:42:15;1.57;;;0.43;;
15931;SDS011;8065;49.520;11.284;2024-02-23T00:44:43;0.73;;;0.50;;
15931;SDS011;8065;49.520;11.284;2024-02-23T00:47:11;0.67;;;0.47;;
15931;SDS011;8065;49.520;11.284;2024-02-23T00:49:42;1.77;;;0.50;;
15931;SDS011;8065;49.520;11.284;2024-02-23T00:52:10;0.37;;;0.20;;
15931;SDS011;8065;49.520;11.284;2024-02-23T00:54:39;1.30;;;0.30;;
15931;SDS011;8065;49.520;11.284;2024-02-23T00:57:07;0.20;;;0.20;;
15931;SDS011;8065;49.520;11.284;2024-02-23T00:59:36;0.20;;;0.20;;
15931;SDS011;8065;49.520;11.284;2024-02-23T01:02:04;0.20;;;0.20;;
15931;SDS011;8065;49.520;11.284;2024-02-23T01:04:33;0.60;;;0.30;;
15931;SDS011;8065;49.520;11.284;2024-02-23T01:07:04;0.33;;;0.30;;
15931;SDS011;8065;49.520;11.284;2024-02-23T01:09:32;0.23;;;0.23;;
15931;SDS011;8065;49.520;11.284;2024-02-23T01:12:00;0.40;;;0.20;;
15931;SDS011;8065;49.520;11.284;2024-02-23T01:14:29;0.20;;;0.20;;
15931;SDS011;8065;49.520;11.284;2024-02-23T01:16:57;0.30;;;0.10;;
15931;SDS011;8065;49.520;11.284;2024-02-23T01:19:25;0.50;;;0.30;;
15931;SDS011;8065;49.520;11.284;2024-02-23T01:21:54;0.50;;;0.20;;
15931;SDS011;8065;49.520;11.284;2024-02-23T01:24:27;0.50;;;0.17;;
15931;SDS011;8065;49.520;11.284;2024-02-23T01:26:55;0.20;;;0.20;;
15931;SDS011;8065;49.520;11.284;2024-02-23T01:29:24;0.13;;;0.10;;
15931;SDS011;8065;49.520;11.284;2024-02-23T01:31:53;1.13;;;0.40;;
15931;SDS011;8065;49.520;11.284;2024-02-23T01:34:22;1.03;;;0.30;;
15931;SDS011;8065;49.520;11.284;2024-02-23T01:36:50;0.30;;;0.30;;
15931;SDS011;8065;49.520;11.284;2024-02-23T01:39:18;0.53;;;0.30;;
15931;SDS011;8065;49.520;11.284;2024-02-23T01:41:49;2.20;;;0.20;;
15931;SDS011;8065;49.520;11.284;2024-02-23T01:44:19;0.20;;;0.20;;
15931;SDS011;8065;49.520;11.284;2024-02-23T01:46:48;2.93;;;0.30;;
15931;SDS011;8065;49.520;11.284;2024-02-23T01:49:18;0.40;;;0.20;;
15931;SDS011;8065;49.520;11.284;2024-02-23T01:51:54;0.20;;;0.20;;
15931;SDS011;8065;49.520;11.284;2024-02-23T01:54:23;0.20;;;0.20;;
15931;SDS011;8065;49.520;11.284;2024-02-23T01:56:56;1.10;;;0.50;;
15931;SDS011;8065;49.520;11.284;2024-02-23T01:59:25;0.73;;;0.30;;
15931;SDS011;8065;49.520;11.284;2024-02-23T02:01:55;1.90;;;0.40;;
15931;SDS011;8065;49.520;11.284;2024-02-23T02:04:23;0.77;;;0.30;;
15931;SDS011;8065;49.520;11.284;2024-02-23T02:06:51;0.60;;;0.40;;
15931;SDS011;8065;49.520;11.284;2024-02-23T02:09:20;0.20;;;0.20;;
15931;SDS011;8065;49.520;11.284;2024-02-23T02:11:48;1.40;;;0.50;;
15931;SDS011;8065;49.520;11.284;2024-02-23T02:14:19;0.33;;;0.20;;
15931;SDS011;8065;49.520;11.284;2024-02-23T02:16:48;0.20;;;0.20;;
15931;SDS011;8065;49.520;11.284;2024-02-23T02:19:16;0.20;;;0.20;;
15931;SDS011;8065;49.520;11.284;2024-02-23T02:21:44;2.47;;;0.70;;
15931;SDS011;8065;49.520;11.284;2024-02-23T02:24:13;1.60;;;0.40;;
15931;SDS011;8065;49.520;11.284;2024-02-23T02:26:41;0.47;;;0.30;;
15931;SDS011;8065;49.520;11.284;2024-02-23T02:29:11;0.40;;;0.40;;
15931;SDS011;8065;49.520;11.284;2024-02-23T02:31:44;0.57;;;0.30;;
15931;SDS011;8065;49.520;11.284;2024-02-23T02:34:12;1.53;;;0.30;;
15931;SDS011;8065;49.520;11.284;2024-02-23T02:36:40;0.27;;;0.27;;
15931;SDS011;8065;49.520;11.284;2024-02-23T02:39:09;1.30;;;0.60;;
15931;SDS011;8065;49.520;11.284;2024-02-23T02:41:37;0.57;;;0.30;;
15931;SDS011;8065;49.520;11.284;2024-02-23T02:44:05;0.83;;;0.30;;
15931;SDS011;8065;49.520;11.284;2024-02-23T02:46:34;2.50;;;0.47;;
15931;SDS011;8065;49.520;11.284;2024-02-23T02:49:05;2.10;;;0.40;;
15931;SDS011;8065;49.520;11.284;2024-02-23T02:51:34;1.47;;;0.40;;
15931;SDS011;8065;49.520;11.284;2024-02-23T02:54:02;0.50;;;0.30;;
15931;SDS011;8065;49.520;11.284;2024-02-23T02:56:30;2.13;;;0.40;;
15931;SDS011;8065;49.520;11.284;2024-02-23T02:58:59;0.50;;;0.40;;
15931;SDS011;8065;49.520;11.284;2024-02-23T03:01:27;2.93;;;0.60;;
15931;SDS011;8065;49.520;11.284;2024-02-23T03:03:55;0.57;;;0.40;;
15931;SDS011;8065;49.520;11.284;2024-02-23T03:06:26;1.50;;;0.40;;
15931;SDS011;8065;49.520;11.284;2024-02-23T03:08:54;0.60;;;0.40;;
15931;SDS011;8065;49.520;11.284;2024-02-23T03:11:23;1.63;;;0.60;;
15931;SDS011;8065;49.520;11.284;2024-02-23T03:13:51;1.20;;;0.50;;
15931;SDS011;8065;49.520;11.284;2024-02-23T03:16:20;3.50;;;0.60;;
15931;SDS011;8065;49.520;11.284;2024-02-23T03:18:51;0.30;;;0.30;;
15931;SDS011;8065;49.520;11.284;2024-02-23T03:21:19;1.30;;;0.53;;
15931;SDS011;8065;49.520;11.284;2024-02-23T03:23:50;0.50;;;0.33;;
15931;SDS011;8065;49.520;11.284;2024-02-23T03:26:18;0.97;;;0.50;;
15931;SDS011;8065;49.520;11.284;2024-02-23T03:28:47;0.93;;;0.40;;
15931;SDS011;8065;49.520;11.284;2024-02-23T03:31:16;3.67;;;0.50;;
15931;SDS011;8065;49.520;11.284;2024-02-23T03:33:44;2.17;;;0.53;;
15931;SDS011;8065;49.520;11.284;2024-02-23T03:36:12;1.30;;;0.40;;
15931;SDS011;8065;49.520;11.284;2024-02-23T03:38:40;1.50;;;0.70;;
15931;SDS011;8065;49.520;11.284;2024-02-23T03:41:12;0.67;;;0.40;;
15931;SDS011;8065;49.520;11.284;2024-02-23T03:43:40;0.40;;;0.30;;
15931;SDS011;8065;49.520;11.284;2024-02-23T03:46:08;0.67;;;0.50;;
15931;SDS011;8065;49.520;11.284;2024-02-23T03:48:36;1.60;;;0.50;;
15931;SDS011;8065;49.520;11.284;2024-02-23T03:51:05;1.80;;;0.50;;
15931;SDS011;8065;49.520;11.284;2024-02-23T03:53:34;2.27;;;0.60;;
15931;SDS011;8065;49.520;11.284;2024-02-23T03:56:03;3.50;;;0.70;;
15931;SDS011;8065;49.520;11.284;2024-02-23T03:58:34;3.23;;;1.07;;
15931;SDS011;8065;49.520;11.284;2024-02-23T04:01:02;1.43;;;0.50;;
15931;SDS011;8065;49.520;11.284;2024-02-23T04:03:31;1.17;;;0.50;;
15931;SDS011;8065;49.520;11.284;2024-02-23T04:05:59;1.23;;;0.50;;
15931;SDS011;8065;49.520;11.284;2024-02-23T04:08:27;2.30;;;0.67;;
15931;SDS011;8065;49.520;11.284;2024-02-23T04:10:56;4.97;;;0.77;;
15931;SDS011;8065;49.520;11.284;2024-02-23T04:13:24;1.97;;;0.50;;
15931;SDS011;8065;49.520;11.284;2024-02-23T04:15:55;2.87;;;0.73;;
15931;SDS011;8065;49.520;11.284;2024-02-23T04:18:25;1.60;;;0.50;;
15931;SDS011;8065;49.520;11.284;2024-02-23T04:20:54;2.37;;;0.60;;
15931;SDS011;8065;49.520;11.284;2024-02-23T04:23:22;2.20;;;0.60;;
15931;SDS011;8065;49.520;11.284;2024-02-23T04:25:50;3.80;;;0.70;;
15931;SDS011;8065;49.520;11.284;2024-02-23T04:28:19;3.07;;;0.90;;
15931;SDS011;8065;49.520;11.284;2024-02-23T04:30:47;0.67;;;0.40;;
15931;SDS011;8065;49.520;11.284;2024-02-23T04:33:18;1.10;;;0.70;;
15931;SDS011;8065;49.520;11.284;2024-02-23T04:35:47;3.57;;;0.97;;
15931;SDS011;8065;49.520;11.284;2024-02-23T04:38:15;2.53;;;0.90;;
15931;SDS011;8065;49.520;11.284;2024-02-23T04:40:43;2.07;;;0.70;;
15931;SDS011;8065;49.520;11.284;2024-02-23T04:43:11;3.37;;;0.70;;
15931;SDS011;8065;49.520;11.284;2024-02-23T04:45:40;2.60;;;0.90;;
15931;SDS011;8065;49.520;11.284;2024-02-23T04:48:08;1.87;;;0.70;;
15931;SDS011;8065;49.520;11.284;2024-02-23T04:50:39;2.03;;;0.70;;
15931;SDS011;8065;49.520;11.284;2024-02-23T04:53:07;0.67;;;0.60;;
15931;SDS011;8065;49.520;11.284;2024-02-23T04:55:36;2.93;;;0.80;;
15931;SDS011;8065;49.520;11.284;2024-02-23T04:58:04;2.40;;;0.73;;
15931;SDS011;8065;49.520;11.284;2024-02-23T05:00:32;2.53;;;1.07;;
15931;SDS011;8065;49.520;11.284;2024-02-23T05:03:00;1.43;;;0.70;;
15931;SDS011;8065;49.520;11.284;2024-02-23T05:05:29;2.47;;;0.77;;
15931;SDS011;8065;49.520;11.284;2024-02-23T05:08:00;2.70;;;0.80;;
15931;SDS011;8065;49.520;11.284;2024-02-23T05:10:29;2.73;;;0.70;;
15931;SDS011;8065;49.520;11.284;2024-02-23T05:12:57;2.77;;;0.80;;
15931;SDS011;8065;49.520;11.284;2024-02-23T05:15:25;3.63;;;0.80;;
15931;SDS011;8065;49.520;11.284;2024-02-23T05:17:53;1.60;;;0.67;;
15931;SDS011;8065;49.520;11.284;2024-02-23T05:20:22;2.90;;;1.00;;
15931;SDS011;8065;49.520;11.284;2024-02-23T05:22:50;3.47;;;1.00;;
15931;SDS011;8065;49.520;11.284;2024-02-23T05:25:21;2.50;;;0.63;;
15931;SDS011;8065;49.520;11.284;2024-02-23T05:27:50;3.23;;;1.00;;
15931;SDS011;8065;49.520;11.284;2024-02-23T05:30:19;1.97;;;0.73;;
15931;SDS011;8065;49.520;11.284;2024-02-23T05:32:47;2.80;;;0.70;;
15931;SDS011;8065;49.520;11.284;2024-02-23T05:35:15;4.60;;;1.00;;
15931;SDS011;8065;49.520;11.284;2024-02-23T05:37:44;2.97;;;0.70;;
15931;SDS011;8065;49.520;11.284;2024-02-23T05:40:12;2.30;;;0.70;;
15931;SDS011;8065;49.520;11.284;2024-02-23T05:42:43;2.90;;;0.90;;
15931;SDS011;8065;49.520;11.284;2024-02-23T05:45:11;3.47;;;0.80;;
15931;SDS011;8065;49.520;11.284;2024-02-23T05:47:40;4.20;;;0.87;;
15931;SDS011;8065;49.520;11.284;2024-02-23T05:50:08;2.63;;;0.80;;
15931;SDS011;8065;49.520;11.284;2024-02-23T05:52:37;4.20;;;1.00;;
15931;SDS011;8065;49.520;11.284;2024-02-23T05:55:05;2.47;;;0.70;;
15931;SDS011;8065;49.520;11.284;2024-02-23T05:57:34;3.83;;;0.93;;
15931;SDS011;8065;49.520;11.284;2024-02-23T06:00:05;2.53;;;0.90;;
15931;SDS011;8065;49.520;11.284;2024-02-23T06:02:35;1.83;;;1.10;;
15931;SDS011;8065;49.520;11.284;2024-02-23T06:05:04;3.43;;;1.30;;
15931;SDS011;8065;49.520;11.284;2024-02-23T06:07:33;2.30;;;1.00;;
15931;SDS011;8065;49.520;11.284;2024-02-23T06:10:02;3.30;;;1.10;;
15931;SDS011;8065;49.520;11.284;2024-02-23T06:12:30;4.57;;;2.30;;
15931;SDS011;8065;49.520;11.284;2024-02-23T06:14:58;6.07;;;3.13;;
15931;SDS011;8065;49.520;11.284;2024-02-23T06:17:29;8.23;;;1.30;;
15931;SDS011;8065;49.520;11.284;2024-02-23T06:19:58;2.00;;;1.30;;
15931;SDS011;8065;49.520;11.284;2024-02-23T06:22:26;3.67;;;1.10;;
15931;SDS011;8065;49.520;11.284;2024-02-23T06:24:54;3.70;;;1.10;;
15931;SDS011;8065;49.520;11.284;2024-02-23T06:27:22;2.67;;;0.90;;
15931;SDS011;8065;49.520;11.284;2024-02-23T06:29:52;2.10;;;0.90;;
15931;SDS011;8065;49.520;11.284;2024-02-23T06:32:21;3.07;;;1.77;;
15931;SDS011;8065;49.520;11.284;2024-02-23T06:34:51;4.13;;;2.00;;
15931;SDS011;8065;49.520;11.284;2024-02-23T06:37:20;4.80;;;2.50;;
15931;SDS011;8065;49.520;11.284;2024-02-23T06:39:48;4.83;;;2.07;;
15931;SDS011;8065;49.520;11.284;2024-02-23T06:42:19;2.90;;;1.60;;
15931;SDS011;8065;49.520;11.284;2024-02-23T06:44:48;3.53;;;1.30;;
15931;SDS011;8065;49.520;11.284;2024-02-23T06:47:16;3.40;;;1.30;;
15931;SDS011;8065;49.520;11.284;2024-02-23T06:49:45;3.37;;;1.50;;
15931;SDS011;8065;49.520;11.284;2024-02-23T06:52:16;2.47;;;1.40;;
15931;SDS011;8065;49.520;11.284;2024-02-23T06:54:45;5.10;;;1.20;;
15931;SDS011;8065;49.520;11.284;2024-02-23T06:57:13;3.73;;;1.30;;
15931;SDS011;8065;49.520;11.284;2024-02-23T06:59:41;3.80;;;1.10;;
15931;SDS011;8065;49.520;11.284;2024-02-23T07:02:10;3.13;;;1.17;;
15931;SDS011;8065;49.520;11.284;2024-02-23T07:04:38;3.47;;;0.93;;
15931;SDS011;8065;49.520;11.284;2024-02-23T07:07:06;2.63;;;1.20;;
15931;SDS011;8065;49.520;11.284;2024-02-23T07:09:39;3.13;;;1.20;;
15931;SDS011;8065;49.520;11.284;2024-02-23T07:12:07;4.30;;;1.27;;
15931;SDS011;8065;49.520;11.284;2024-02-23T07:14:38;2.73;;;1.00;;
15931;SDS011;8065;49.520;11.284;2024-02-23T07:17:06;2.43;;;0.80;;
15931;SDS011;8065;49.520;11.284;2024-02-23T07:19:35;6.33;;;1.10;;
15931;SDS011;8065;49.520;11.284;2024-02-23T07:22:04;2.90;;;0.80;;
15931;SDS011;8065;49.520;11.284;2024-02-23T07:24:32;7.40;;;1.07;;
15931;SDS011;8065;49.520;11.284;2024-02-23T07:27:03;2.40;;;1.03;;
15931;SDS011;8065;49.520;11.284;2024-02-23T07:29:32;1.20;;;0.80;;
15931;SDS011;8065;49.520;11.284;2024-02-23T07:32:00;1.33;;;0.60;;
15931;SDS011;8065;49.520;11.284;2024-02-23T07:34:28;2.97;;;1.10;;
15931;SDS011;8065;49.520;11.284;2024-02-23T07:36:57;2.20;;;0.90;;
15931;SDS011;8065;49.520;11.284;2024-02-23T07:39:25;3.07;;;1.00;;
15931;SDS011;8065;49.520;11.284;2024-02-23T07:41:53;5.20;;;0.83;;
15931;SDS011;8065;49.520;11.284;2024-02-23T07:44:24;3.80;;;1.10;;
15931;SDS011;8065;49.520;11.284;2024-02-23T07:46:52;2.20;;;0.90;;
15931;SDS011;8065;49.520;11.284;2024-02-23T07:49:21;4.43;;;1.00;;
15931;SDS011;8065;49.520;11.284;2024-02-23T07:51:50;1.60;;;0.90;;
15931;SDS011;8065;49.520;11.284;2024-02-23T07:54:18;2.63;;;0.90;;
15931;SDS011;8065;49.520;11.284;2024-02-23T07:56:46;2.43;;;0.90;;
15931;SDS011;8065;49.520;11.284;2024-02-23T07:59:15;2.27;;;0.77;;
15931;SDS011;8065;49.520;11.284;2024-02-23T08:01:46;4.10;;;1.00;;
15931;SDS011;8065;49.520;11.284;2024-02-23T08:04:14;4.00;;;1.10;;
15931;SDS011;8065;49.520;11.284;2024-02-23T08:06:42;4.63;;;1.03;;
15931;SDS011;8065;49.520;11.284;2024-02-23T08:09:11;2.10;;;0.80;;
15931;SDS011;8065;49.520;11.284;2024-02-23T08:11:39;4.60;;;2.00;;
15931;SDS011;8065;49.520;11.284;2024-02-23T08:14:07;5.63;;;2.30;;
15931;SDS011;8065;49.520;11.284;2024-02-23T08:16:36;2.57;;;1.00;;
15931;SDS011;8065;49.520;11.284;2024-02-23T08:19:07;2.57;;;1.03;;
15931;SDS011;8065;49.520;11.284;2024-02-23T08:21:36;2.10;;;1.00;;
15931;SDS011;8065;49.520;11.284;2024-02-23T08:24:05;1.97;;;1.13;;
15931;SDS011;8065;49.520;11.284;2024-02-23T08:26:33;2.07;;;0.80;;
15931;SDS011;8065;49.520;11.284;2024-02-23T08:29:03;1.60;;;0.83;;
15931;SDS011;8065;49.520;11.284;2024-02-23T08:31:31;1.53;;;0.80;;
15931;SDS011;8065;49.520;11.284;2024-02-23T08:34:00;2.87;;;0.93;;
15931;SDS011;8065;49.520;11.284;2024-02-23T08:36:30;1.37;;;0.93;;
15931;SDS011;8065;49.520;11.284;2024-02-23T08:38:59;1.00;;;0.90;;
15931;SDS011;8065;49.520;11.284;2024-02-23T08:41:28;1.87;;;0.90;;
15931;SDS011;8065;49.520;11.284;2024-02-23T08:43:56;2.23;;;0.70;;
15931;SDS011;8065;49.520;11.284;2024-02-23T08:46:24;4.77;;;0.93;;
15931;SDS011;8065;49.520;11.284;2024-02-23T08:48:52;3.07;;;0.70;;
15931;SDS011;8065;49.520;11.284;2024-02-23T08:51:21;2.10;;;0.87;;
15931;SDS011;8065;49.520;11.284;2024-02-23T08:53:52;2.40;;;0.60;;
15931;SDS011;8065;49.520;11.284;2024-02-23T08:56:21;3.30;;;1.00;;
15931;SDS011;8065;49.520;11.284;2024-02-23T08:58:49;2.27;;;0.77;;
15931;SDS011;8065;49.520;11.284;2024-02-23T09:01:18;1.23;;;0.77;;
15931;SDS011;8065;49.520;11.284;2024-02-23T09:03:46;1.03;;;0.70;;
15931;SDS011;8065;49.520;11.284;2024-02-23T09:06:14;1.37;;;0.80;;
15931;SDS011;8065;49.520;11.284;2024-02-23T09:08:43;2.63;;;0.70;;
15931;SDS011;8065;49.520;11.284;2024-02-23T09:11:13;2.00;;;0.60;;
15931;SDS011;8065;49.520;11.284;2024-02-23T09:13:42;2.27;;;0.77;;
15931;SDS011;8065;49.520;11.284;2024-02-23T09:16:10;1.63;;;0.70;;
15931;SDS011;8065;49.520;11.284;2024-02-23T09:18:39;2.20;;;0.80;;
15931;SDS011;8065;49.520;11.284;2024-02-23T09:21:08;2.30;;;0.80;;
15931;SDS011;8065;49.520;11.284;2024-02-23T09:23:36;1.00;;;0.63;;
15931;SDS011;8065;49.520;11.284;2024-02-23T09:26:08;2.17;;;0.80;;
15931;SDS011;8065;49.520;11.284;2024-02-23T09:28:39;2.30;;;0.60;;
15931;SDS011;8065;49.520;11.284;2024-02-23T09:31:10;1.30;;;0.70;;
15931;SDS011;8065;49.520;11.284;2024-02-23T09:33:38;4.73;;;1.17;;
15931;SDS011;8065;49.520;11.284;2024-02-23T09:36:07;2.57;;;1.17;;
15931;SDS011;8065;49.520;11.284;2024-02-23T09:38:35;2.03;;;0.83;;
15931;SDS011;8065;49.520;11.284;2024-02-23T09:41:04;2.40;;;0.80;;
15931;SDS011;8065;49.520;11.284;2024-02-23T09:43:32;0.80;;;0.50;;
15931;SDS011;8065;49.520;11.284;2024-02-23T09:46:04;2.17;;;1.00;;
15931;SDS011;8065;49.520;11.284;2024-02-23T09:48:32;1.23;;;0.70;;
15931;SDS011;8065;49.520;11.284;2024-02-23T09:51:02;1.87;;;0.60;;
15931;SDS011;8065;49.520;11.284;2024-02-23T09:53:33;2.37;;;0.60;;
15931;SDS011;8065;49.520;11.284;2024-02-23T09:56:05;1.93;;;0.70;;
15931;SDS011;8065;49.520;11.284;2024-02-23T09:58:34;2.50;;;0.67;;
15931;SDS011;8065;49.520;11.284;2024-02-23T10:01:06;3.73;;;0.90;;
15931;SDS011;8065;49.520;11.284;2024-02-23T10:03:36;2.17;;;0.70;;
15931;SDS011;8065;49.520;11.284;2024-02-23T10:06:06;1.60;;;0.70;;
15931;SDS011;8065;49.520;11.284;2024-02-23T10:08:34;4.17;;;0.90;;
15931;SDS011;8065;49.520;11.284;2024-02-23T10:11:03;1.77;;;1.10;;
15931;SDS011;8065;49.520;11.284;2024-02-23T10:13:32;0.90;;;0.80;;
15931;SDS011;8065;49.520;11.284;2024-02-23T10:16:00;2.33;;;0.90;;
15931;SDS011;8065;49.520;11.284;2024-02-23T10:18:31;2.23;;;0.63;;
15931;SDS011;8065;49.520;11.284;2024-02-23T10:21:00;1.40;;;0.70;;
15931;SDS011;8065;49.520;11.284;2024-02-23T10:23:28;3.20;;;0.90;;
15931;SDS011;8065;49.520;11.284;2024-02-23T10:25:57;1.63;;;1.10;;
15931;SDS011;8065;49.520;11.284;2024-02-23T10:28:25;2.07;;;0.73;;
15931;SDS011;8065;49.520;11.284;2024-02-23T10:30:53;1.33;;;0.80;;
15931;SDS011;8065;49.520;11.284;2024-02-23T10:33:22;1.07;;;0.70;;
15931;SDS011;8065;49.520;11.284;2024-02-23T10:35:54;1.33;;;0.70;;
15931;SDS011;8065;49.520;11.284;2024-02-23T10:38:25;3.30;;;0.80;;
15931;SDS011;8065;49.520;11.284;2024-02-23T10:40:54;2.80;;;0.80;;
15931;SDS011;8065;49.520;11.284;2024-02-23T10:43:24;0.90;;;0.90;;
15931;SDS011;8065;49.520;11.284;2024-02-23T10:45:59;2.10;;;0.80;;
15931;SDS011;8065;49.520;11.284;2024-02-23T10:48:33;2.63;;;1.00;;
15931;SDS011;8065;49.520;11.284;2024-02-23T10:51:05;3.40;;;1.00;;
15931;SDS011;8065;49.520;11.284;2024-02-23T10:53:35;3.60;;;1.20;;
15931;SDS011;8065;49.520;11.284;2024-02-23T10:56:04;2.20;;;0.90;;
15931;SDS011;8065;49.520;11.284;2024-02-23T10:58:33;3.03;;;0.60;;
15931;SDS011;8065;49.520;11.284;2024-02-23T11:01:02;6.43;;;0.93;;
15931;SDS011;8065;49.520;11.284;2024-02-23T11:03:34;1.07;;;0.43;;
15931;SDS011;8065;49.520;11.284;2024-02-23T11:06:08;1.47;;;1.13;;
15931;SDS011;8065;49.520;11.284;2024-02-23T11:08:36;2.30;;;0.73;;
15931;SDS011;8065;49.520;11.284;2024-02-23T11:11:07;3.10;;;1.17;;
15931;SDS011;8065;49.520;11.284;2024-02-23T11:13:36;2.13;;;0.60;;
15931;SDS011;8065;49.520;11.284;2024-02-23T11:16:06;1.20;;;0.60;;
15931;SDS011;8065;49.520;11.284;2024-02-23T11:18:35;2.17;;;0.80;;
15931;SDS011;8065;49.520;11.284;2024-02-23T11:21:05;3.10;;;1.10;;
15931;SDS011;8065;49.520;11.284;2024-02-23T11:23:40;1.27;;;0.70;;
15931;SDS011;8065;49.520;11.284;2024-02-23T11:26:09;1.30;;;0.60;;
15931;SDS011;8065;49.520;11.284;2024-02-23T11:28:47;1.60;;;0.50;;
15931;SDS011;8065;49.520;11.284;2024-02-23T11:31:19;2.00;;;0.90;;
15931;SDS011;8065;49.520;11.284;2024-02-23T11:33:48;1.13;;;0.60;;
15931;SDS011;8065;49.520;11.284;2024-02-23T11:36:28;1.20;;;0.60;;
15931;SDS011;8065;49.520;11.284;2024-02-23T11:38:58;3.40;;;0.87;;
15931;SDS011;8065;49.520;11.284;2024-02-23T11:41:27;2.53;;;0.60;;
15931;SDS011;8065;49.520;11.284;2024-02-23T11:43:56;2.63;;;0.80;;
15931;SDS011;8065;49.520;11.284;2024-02-23T11:46:25;2.53;;;0.77;;
15931;SDS011;8065;49.520;11.284;2024-02-23T11:48:54;3.10;;;1.13;;
15931;SDS011;8065;49.520;11.284;2024-02-23T11:51:22;1.70;;;1.00;;
15931;SDS011;8065;49.520;11.284;2024-02-23T11:53:56;1.33;;;1.13;;
15931;SDS011;8065;49.520;11.284;2024-02-23T11:56:25;6.27;;;1.57;;
15931;SDS011;8065;49.520;11.284;2024-02-23T11:58:54;6.70;;;2.20;;
15931;SDS011;8065;49.520;11.284;2024-02-23T12:01:22;4.93;;;2.67;;
15931;SDS011;8065;49.520;11.284;2024-02-23T12:03:50;1.03;;;0.80;;
15931;SDS011;8065;49.520;11.284;2024-02-23T12:06:19;1.77;;;1.03;;
15931;SDS011;8065;49.520;11.284;2024-02-23T12:08:50;1.77;;;0.70;;
15931;SDS011;8065;49.520;11.284;2024-02-23T12:11:19;1.80;;;0.80;;
15931;SDS011;8065;49.520;11.284;2024-02-23T12:13:47;1.17;;;0.60;;
15931;SDS011;8065;49.520;11.284;2024-02-23T12:16:16;1.33;;;0.60;;
15931;SDS011;8065;49.520;11.284;2024-02-23T12:18:44;2.07;;;0.60;;
15931;SDS011;8065;49.520;11.284;2024-02-23T12:21:12;0.97;;;0.80;;
15931;SDS011;8065;49.520;11.284;2024-02-23T12:23:41;3.00;;;0.90;;
15931;SDS011;8065;49.520;11.284;2024-02-23T12:26:13;1.20;;;0.70;;
15931;SDS011;8065;49.520;11.284;2024-02-23T12:28:43;1.40;;;0.80;;
15931;SDS011;8065;49.520;11.284;2024-02-23T12:31:13;2.17;;;0.87;;
15931;SDS011;8065;49.520;11.284;2024-02-23T12:33:41;2.90;;;1.37;;
15931;SDS011;8065;49.520;11.284;2024-02-23T12:36:13;1.23;;;0.93;;
15931;SDS011;8065;49.520;11.284;2024-02-23T12:38:42;1.83;;;0.70;;
15931;SDS011;8065;49.520;11.284;2024-02-23T12:41:13;1.10;;;1.00;;
15931;SDS011;8065;49.520;11.284;2024-02-23T12:43:41;1.30;;;1.20;;
15931;SDS011;8065;49.520;11.284;2024-02-23T12:46:10;3.33;;;1.50;;
15931;SDS011;8065;49.520;11.284;2024-02-23T12:48:39;1.60;;;1.20;;
15931;SDS011;8065;49.520;11.284;2024-02-23T12:51:07;2.40;;;0.97;;
15931;SDS011;8065;49.520;11.284;2024-02-23T12:53:37;1.10;;;0.60;;
15931;SDS011;8065;49.520;11.284;2024-02-23T12:56:07;1.60;;;1.00;;
15931;SDS011;8065;49.520;11.284;2024-02-23T12:58:39;2.13;;;0.87;;
15931;SDS011;8065;49.520;11.284;2024-02-23T13:01:09;0.90;;;0.80;;
15931;SDS011;8065;49.520;11.284;2024-02-23T13:03:38;1.57;;;0.90;;
15931;SDS011;8065;49.520;11.284;2024-02-23T13:06:08;1.67;;;1.00;;
15931;SDS011;8065;49.520;11.284;2024-02-23T13:08:38;1.20;;;1.10;;
15931;SDS011;8065;49.520;11.284;2024-02-23T13:11:07;0.90;;;0.70;;
15931;SDS011;8065;49.520;11.284;2024-02-23T13:13:38;2.23;;;0.70;;
15931;SDS011;8065;49.520;11.284;2024-02-23T13:16:07;1.43;;;1.00;;
15931;SDS011;8065;49.520;11.284;2024-02-23T13:18:35;3.37;;;0.70;;
15931;SDS011;8065;49.520;11.284;2024-02-23T13:21:03;1.33;;;0.90;;
15931;SDS011;8065;49.520;11.284;2024-02-23T13:23:32;1.47;;;0.80;;
15931;SDS011;8065;49.520;11.284;2024-02-23T13:26:04;1.07;;;0.80;;
15931;SDS011;8065;49.520;11.284;2024-02-23T13:28:44;2.97;;;0.50;;
15931;SDS011;8065;49.520;11.284;2024-02-23T13:31:12;1.33;;;0.80;;
15931;SDS011;8065;49.520;11.284;2024-02-23T13:33:42;2.00;;;1.00;;
15931;SDS011;8065;49.520;11.284;2024-02-23T13:36:10;1.93;;;0.73;;
15931;SDS011;8065;49.520;11.284;2024-02-23T13:38:39;1.27;;;0.60;;
15931;SDS011;8065;49.520;11.284;2024-02-23T13:41:07;1.40;;;0.70;;
15931;SDS011;8065;49.520;11.284;2024-02-23T13:43:36;2.77;;;0.90;;
15931;SDS011;8065;49.520;11.284;2024-02-23T13:46:07;0.70;;;0.70;;
15931;SDS011;8065;49.520;11.284;2024-02-23T13:48:36;0.67;;;0.60;;
15931;SDS011;8065;49.520;11.284;2024-02-23T13:51:04;0.97;;;0.70;;
15931;SDS011;8065;49.520;11.284;2024-02-23T13:53:35;1.90;;;0.80;;
15931;SDS011;8065;49.520;11.284;2024-02-23T13:56:05;0.80;;;0.80;;
15931;SDS011;8065;49.520;11.284;2024-02-23T13:58:33;0.90;;;0.80;;
15931;SDS011;8065;49.520;11.284;2024-02-23T14:01:02;1.97;;;0.90;;
15931;SDS011;8065;49.520;11.284;2024-02-23T14:03:33;1.20;;;1.10;;
15931;SDS011;8065;49.520;11.284;2024-02-23T14:06:01;2.10;;;1.00;;
15931;SDS011;8065;49.520;11.284;2024-02-23T14:08:30;2.53;;;0.70;;
15931;SDS011;8065;49.520;11.284;2024-02-23T14:10:59;0.67;;;0.63;;
15931;SDS011;8065;49.520;11.284;2024-02-23T14:13:27;1.27;;;0.70;;
15931;SDS011;8065;49.520;11.284;2024-02-23T14:15:55;1.30;;;0.90;;
15931;SDS011;8065;49.520;11.284;2024-02-23T14:18:24;2.70;;;0.70;;
15931;SDS011;8065;49.520;11.284;2024-02-23T14:20:55;1.53;;;0.47;;
15931;SDS011;8065;49.520;11.284;2024-02-23T14:23:23;1.00;;;0.63;;
15931;SDS011;8065;49.520;11.284;2024-02-23T14:25:51;2.57;;;0.60;;
15931;SDS011;8065;49.520;11.284;2024-02-23T14:28:19;1.10;;;0.57;;
15931;SDS011;8065;49.520;11.284;2024-02-23T14:30:48;1.57;;;1.27;;
15931;SDS011;8065;49.520;11.284;2024-02-23T14:33:17;2.30;;;1.50;;
15931;SDS011;8065;49.520;11.284;2024-02-23T14:35:46;3.30;;;2.53;;
15931;SDS011;8065;49.520;11.284;2024-02-23T14:38:17;5.03;;;2.43;;
15931;SDS011;8065;49.520;11.284;2024-02-23T14:40:45;2.83;;;1.60;;
15931;SDS011;8065;49.520;11.284;2024-02-23T14:43:13;3.07;;;1.10;;
15931;SDS011;8065;49.520;11.284;2024-02-23T14:45:42;0.70;;;0.70;;
15931;SDS011;8065;49.520;11.284;2024-02-23T14:48:10;2.07;;;1.10;;
15931;SDS011;8065;49.520;11.284;2024-02-23T14:50:39;1.50;;;0.97;;
15931;SDS011;8065;49.520;11.284;2024-02-23T14:53:07;5.20;;;0.90;;
15931;SDS011;8065;49.520;11.284;2024-02-23T14:55:39;2.23;;;0.70;;
15931;SDS011;8065;49.520;11.284;2024-02-23T14:58:07;2.10;;;0.80;;
15931;SDS011;8065;49.520;11.284;2024-02-23T15:00:36;1.63;;;0.80;;